sensor_id;sensor_type;location;lat;lon;timestamp;P1;durP1;ratioP1;P2;durP2;ratioP2
41685;SDS011;27370;42.764;23.432;2023-07-20T00:01:21;13.27;;;3.90;;
41685;SDS011;27370;42.764;23.432;2023-07-20T00:03:47;13.50;;;3.58;;
41685;SDS011;27370;42.764;23.432;2023-07-20T00:06:20;15.75;;;3.80;;
41685;SDS011;27370;42.764;23.432;2023-07-20T00:08:50;13.15;;;3.85;;
41685;SDS011;27370;42.764;23.432;2023-07-20T00:11:16;14.38;;;3.78;;
41685;SDS011;27370;42.764;23.432;2023-07-20T00:13:42;13.25;;;3.47;;
41685;SDS011;27370;42.764;23.432;2023-07-20T00:16:07;13.00;;;3.70;;
41685;SDS011;27370;42.764;23.432;2023-07-20T00:18:33;12.27;;;3.58;;
41685;SDS011;27370;42.764;23.432;2023-07-20T00:20:59;12.90;;;3.60;;
41685;SDS011;27370;42.764;23.432;2023-07-20T00:23:27;13.93;;;3.53;;
41685;SDS011;27370;42.764;23.432;2023-07-20T00:25:53;11.95;;;3.67;;
41685;SDS011;27370;42.764;23.432;2023-07-20T00:28:19;10.38;;;3.83;;
41685;SDS011;27370;42.764;23.432;2023-07-20T00:30:47;11.10;;;3.95;;
41685;SDS011;27370;42.764;23.432;2023-07-20T00:33:16;10.63;;;3.85;;
41685;SDS011;27370;42.764;23.432;2023-07-20T00:35:42;9.82;;;3.70;;
41685;SDS011;27370;42.764;23.432;2023-07-20T00:38:07;12.90;;;3.85;;
41685;SDS011;27370;42.764;23.432;2023-07-20T00:40:37;11.80;;;4.10;;
41685;SDS011;27370;42.764;23.432;2023-07-20T00:43:03;10.73;;;3.72;;
41685;SDS011;27370;42.764;23.432;2023-07-20T00:45:29;10.57;;;3.95;;
41685;SDS011;27370;42.764;23.432;2023-07-20T00:47:55;10.68;;;3.58;;
41685;SDS011;27370;42.764;23.432;2023-07-20T00:50:22;13.93;;;4.18;;
41685;SDS011;27370;42.764;23.432;2023-07-20T00:52:48;14.73;;;3.83;;
41685;SDS011;27370;42.764;23.432;2023-07-20T00:55:14;14.27;;;4.03;;
41685;SDS011;27370;42.764;23.432;2023-07-20T00:57:39;13.63;;;4.65;;
41685;SDS011;27370;42.764;23.432;2023-07-20T01:00:05;16.60;;;4.03;;
41685;SDS011;27370;42.764;23.432;2023-07-20T01:02:31;13.75;;;3.90;;
41685;SDS011;27370;42.764;23.432;2023-07-20T01:04:57;11.95;;;3.47;;
41685;SDS011;27370;42.764;23.432;2023-07-20T01:07:24;13.73;;;4.43;;
41685;SDS011;27370;42.764;23.432;2023-07-20T01:10:06;12.45;;;4.85;;
41685;SDS011;27370;42.764;23.432;2023-07-20T01:12:47;13.68;;;4.53;;
41685;SDS011;27370;42.764;23.432;2023-07-20T01:15:13;12.32;;;4.15;;
41685;SDS011;27370;42.764;23.432;2023-07-20T01:17:39;11.93;;;3.95;;
41685;SDS011;27370;42.764;23.432;2023-07-20T01:20:08;17.85;;;4.63;;
41685;SDS011;27370;42.764;23.432;2023-07-20T01:22:46;12.13;;;4.03;;
41685;SDS011;27370;42.764;23.432;2023-07-20T01:33:09;13.70;;;4.28;;
41685;SDS011;27370;42.764;23.432;2023-07-20T01:38:06;11.23;;;4.28;;
41685;SDS011;27370;42.764;23.432;2023-07-20T01:40:33;11.63;;;4.40;;
41685;SDS011;27370;42.764;23.432;2023-07-20T01:42:59;11.00;;;4.50;;
41685;SDS011;27370;42.764;23.432;2023-07-20T01:45:25;14.07;;;4.32;;
41685;SDS011;27370;42.764;23.432;2023-07-20T01:47:51;13.75;;;4.00;;
41685;SDS011;27370;42.764;23.432;2023-07-20T01:50:17;12.15;;;4.45;;
41685;SDS011;27370;42.764;23.432;2023-07-20T01:52:43;16.45;;;4.70;;
41685;SDS011;27370;42.764;23.432;2023-07-20T01:55:08;14.27;;;5.03;;
41685;SDS011;27370;42.764;23.432;2023-07-20T01:57:34;17.00;;;5.13;;
41685;SDS011;27370;42.764;23.432;2023-07-20T01:59:59;13.43;;;5.00;;
41685;SDS011;27370;42.764;23.432;2023-07-20T02:02:26;13.82;;;4.85;;
41685;SDS011;27370;42.764;23.432;2023-07-20T02:04:53;15.38;;;5.38;;
41685;SDS011;27370;42.764;23.432;2023-07-20T02:07:19;17.65;;;5.45;;
41685;SDS011;27370;42.764;23.432;2023-07-20T02:09:45;14.82;;;5.07;;
41685;SDS011;27370;42.764;23.432;2023-07-20T02:12:10;15.68;;;5.20;;
41685;SDS011;27370;42.764;23.432;2023-07-20T02:14:36;18.00;;;5.43;;
41685;SDS011;27370;42.764;23.432;2023-07-20T02:17:01;15.30;;;5.50;;
41685;SDS011;27370;42.764;23.432;2023-07-20T02:19:28;10.95;;;4.25;;
41685;SDS011;27370;42.764;23.432;2023-07-20T02:21:55;19.27;;;6.18;;
41685;SDS011;27370;42.764;23.432;2023-07-20T02:24:20;13.13;;;5.40;;
41685;SDS011;27370;42.764;23.432;2023-07-20T02:26:46;15.05;;;5.30;;
41685;SDS011;27370;42.764;23.432;2023-07-20T02:29:11;13.98;;;5.40;;
41685;SDS011;27370;42.764;23.432;2023-07-20T02:31:37;12.23;;;5.38;;
41685;SDS011;27370;42.764;23.432;2023-07-20T02:34:07;16.33;;;5.50;;
41685;SDS011;27370;42.764;23.432;2023-07-20T02:36:33;11.43;;;4.80;;
41685;SDS011;27370;42.764;23.432;2023-07-20T02:38:59;14.07;;;5.15;;
41685;SDS011;27370;42.764;23.432;2023-07-20T02:41:26;14.30;;;5.13;;
41685;SDS011;27370;42.764;23.432;2023-07-20T02:43:52;15.13;;;5.13;;
41685;SDS011;27370;42.764;23.432;2023-07-20T02:46:17;14.20;;;5.30;;
41685;SDS011;27370;42.764;23.432;2023-07-20T02:48:42;14.57;;;5.78;;
41685;SDS011;27370;42.764;23.432;2023-07-20T02:51:08;14.27;;;6.15;;
41685;SDS011;27370;42.764;23.432;2023-07-20T02:53:34;19.65;;;5.70;;
41685;SDS011;27370;42.764;23.432;2023-07-20T02:56:00;16.25;;;5.85;;
41685;SDS011;27370;42.764;23.432;2023-07-20T02:58:25;16.63;;;6.05;;
41685;SDS011;27370;42.764;23.432;2023-07-20T03:00:51;14.38;;;5.63;;
41685;SDS011;27370;42.764;23.432;2023-07-20T03:03:17;17.92;;;6.18;;
41685;SDS011;27370;42.764;23.432;2023-07-20T03:05:43;16.17;;;5.97;;
41685;SDS011;27370;42.764;23.432;2023-07-20T03:08:08;15.68;;;5.75;;
41685;SDS011;27370;42.764;23.432;2023-07-20T03:10:38;17.20;;;5.35;;
41685;SDS011;27370;42.764;23.432;2023-07-20T03:13:06;15.82;;;6.13;;
41685;SDS011;27370;42.764;23.432;2023-07-20T03:15:32;15.95;;;6.78;;
41685;SDS011;27370;42.764;23.432;2023-07-20T03:17:58;13.57;;;5.70;;
41685;SDS011;27370;42.764;23.432;2023-07-20T03:20:24;14.00;;;5.55;;
41685;SDS011;27370;42.764;23.432;2023-07-20T03:22:49;13.02;;;5.43;;
41685;SDS011;27370;42.764;23.432;2023-07-20T03:25:15;15.07;;;6.07;;
41685;SDS011;27370;42.764;23.432;2023-07-20T03:27:41;16.25;;;5.82;;
41685;SDS011;27370;42.764;23.432;2023-07-20T03:30:07;16.40;;;6.25;;
41685;SDS011;27370;42.764;23.432;2023-07-20T03:32:35;19.00;;;6.18;;
41685;SDS011;27370;42.764;23.432;2023-07-20T03:35:01;13.70;;;5.85;;
41685;SDS011;27370;42.764;23.432;2023-07-20T03:37:27;18.85;;;6.72;;
41685;SDS011;27370;42.764;23.432;2023-07-20T03:39:52;16.48;;;6.53;;
41685;SDS011;27370;42.764;23.432;2023-07-20T03:42:18;18.55;;;6.32;;
41685;SDS011;27370;42.764;23.432;2023-07-20T03:44:43;14.63;;;6.40;;
41685;SDS011;27370;42.764;23.432;2023-07-20T03:47:09;16.55;;;7.00;;
41685;SDS011;27370;42.764;23.432;2023-07-20T03:49:35;16.55;;;6.43;;
41685;SDS011;27370;42.764;23.432;2023-07-20T03:52:00;17.65;;;5.90;;
41685;SDS011;27370;42.764;23.432;2023-07-20T03:54:28;16.80;;;6.40;;
41685;SDS011;27370;42.764;23.432;2023-07-20T03:56:54;16.60;;;6.65;;
41685;SDS011;27370;42.764;23.432;2023-07-20T03:59:20;18.30;;;6.38;;
41685;SDS011;27370;42.764;23.432;2023-07-20T04:01:45;16.05;;;6.40;;
41685;SDS011;27370;42.764;23.432;2023-07-20T04:04:11;14.38;;;7.30;;
41685;SDS011;27370;42.764;23.432;2023-07-20T04:06:37;16.33;;;7.75;;
41685;SDS011;27370;42.764;23.432;2023-07-20T04:09:03;18.77;;;7.68;;
41685;SDS011;27370;42.764;23.432;2023-07-20T04:11:30;20.52;;;8.35;;
41685;SDS011;27370;42.764;23.432;2023-07-20T04:13:56;20.88;;;7.95;;
41685;SDS011;27370;42.764;23.432;2023-07-20T04:16:21;17.67;;;7.22;;
41685;SDS011;27370;42.764;23.432;2023-07-20T04:18:47;17.65;;;7.80;;
41685;SDS011;27370;42.764;23.432;2023-07-20T04:21:13;16.10;;;6.95;;
41685;SDS011;27370;42.764;23.432;2023-07-20T04:23:38;16.17;;;7.30;;
41685;SDS011;27370;42.764;23.432;2023-07-20T04:26:04;16.52;;;7.45;;
41685;SDS011;27370;42.764;23.432;2023-07-20T04:28:32;19.10;;;7.88;;
41685;SDS011;27370;42.764;23.432;2023-07-20T04:31:09;15.15;;;6.97;;
41685;SDS011;27370;42.764;23.432;2023-07-20T04:33:36;16.15;;;7.70;;
41685;SDS011;27370;42.764;23.432;2023-07-20T04:36:02;17.33;;;7.50;;
41685;SDS011;27370;42.764;23.432;2023-07-20T04:38:34;15.45;;;7.70;;
41685;SDS011;27370;42.764;23.432;2023-07-20T04:41:19;16.80;;;7.75;;
41685;SDS011;27370;42.764;23.432;2023-07-20T04:43:47;19.33;;;8.32;;
41685;SDS011;27370;42.764;23.432;2023-07-20T04:46:17;15.10;;;7.60;;
41685;SDS011;27370;42.764;23.432;2023-07-20T04:48:44;16.60;;;7.40;;
41685;SDS011;27370;42.764;23.432;2023-07-20T04:51:09;20.02;;;7.68;;
41685;SDS011;27370;42.764;23.432;2023-07-20T04:53:35;14.00;;;7.30;;
41685;SDS011;27370;42.764;23.432;2023-07-20T04:56:01;15.27;;;6.43;;
41685;SDS011;27370;42.764;23.432;2023-07-20T04:58:29;17.60;;;6.57;;
41685;SDS011;27370;42.764;23.432;2023-07-20T05:00:54;15.50;;;5.78;;
41685;SDS011;27370;42.764;23.432;2023-07-20T05:03:21;16.92;;;6.85;;
41685;SDS011;27370;42.764;23.432;2023-07-20T05:05:47;15.65;;;6.30;;
41685;SDS011;27370;42.764;23.432;2023-07-20T05:08:14;16.80;;;5.97;;
41685;SDS011;27370;42.764;23.432;2023-07-20T05:10:39;19.48;;;5.63;;
41685;SDS011;27370;42.764;23.432;2023-07-20T05:13:05;17.67;;;5.57;;
41685;SDS011;27370;42.764;23.432;2023-07-20T05:15:32;15.40;;;6.40;;
41685;SDS011;27370;42.764;23.432;2023-07-20T05:17:59;15.88;;;5.93;;
41685;SDS011;27370;42.764;23.432;2023-07-20T05:20:24;18.00;;;5.45;;
41685;SDS011;27370;42.764;23.432;2023-07-20T05:22:50;14.05;;;5.20;;
41685;SDS011;27370;42.764;23.432;2023-07-20T05:25:15;15.25;;;4.75;;
41685;SDS011;27370;42.764;23.432;2023-07-20T05:27:43;14.50;;;4.90;;
41685;SDS011;27370;42.764;23.432;2023-07-20T05:30:09;15.38;;;4.90;;
41685;SDS011;27370;42.764;23.432;2023-07-20T05:32:35;17.63;;;5.25;;
41685;SDS011;27370;42.764;23.432;2023-07-20T05:35:01;18.02;;;5.75;;
41685;SDS011;27370;42.764;23.432;2023-07-20T05:37:26;17.92;;;5.63;;
41685;SDS011;27370;42.764;23.432;2023-07-20T05:39:52;19.98;;;4.85;;
41685;SDS011;27370;42.764;23.432;2023-07-20T05:42:17;14.75;;;5.30;;
41685;SDS011;27370;42.764;23.432;2023-07-20T05:44:43;18.10;;;5.93;;
41685;SDS011;27370;42.764;23.432;2023-07-20T05:47:08;11.80;;;5.35;;
41685;SDS011;27370;42.764;23.432;2023-07-20T05:49:34;18.15;;;5.65;;
41685;SDS011;27370;42.764;23.432;2023-07-20T05:52:00;14.95;;;5.18;;
41685;SDS011;27370;42.764;23.432;2023-07-20T05:54:26;14.82;;;5.30;;
41685;SDS011;27370;42.764;23.432;2023-07-20T05:56:52;13.25;;;4.93;;
41685;SDS011;27370;42.764;23.432;2023-07-20T05:59:18;18.13;;;5.30;;
41685;SDS011;27370;42.764;23.432;2023-07-20T06:01:45;15.20;;;5.43;;
41685;SDS011;27370;42.764;23.432;2023-07-20T06:04:10;14.63;;;5.50;;
41685;SDS011;27370;42.764;23.432;2023-07-20T06:06:36;14.20;;;5.18;;
41685;SDS011;27370;42.764;23.432;2023-07-20T06:09:01;14.68;;;5.85;;
41685;SDS011;27370;42.764;23.432;2023-07-20T06:11:32;17.92;;;6.15;;
41685;SDS011;27370;42.764;23.432;2023-07-20T06:13:58;15.88;;;5.80;;
41685;SDS011;27370;42.764;23.432;2023-07-20T06:16:23;13.55;;;4.93;;
41685;SDS011;27370;42.764;23.432;2023-07-20T06:18:49;15.57;;;4.60;;
41685;SDS011;27370;42.764;23.432;2023-07-20T06:21:15;10.70;;;4.30;;
41685;SDS011;27370;42.764;23.432;2023-07-20T06:23:40;17.10;;;4.55;;
41685;SDS011;27370;42.764;23.432;2023-07-20T06:26:06;12.85;;;3.90;;
41685;SDS011;27370;42.764;23.432;2023-07-20T06:28:32;18.10;;;5.22;;
41685;SDS011;27370;42.764;23.432;2023-07-20T06:31:02;14.68;;;4.40;;
41685;SDS011;27370;42.764;23.432;2023-07-20T06:33:28;14.73;;;4.55;;
41685;SDS011;27370;42.764;23.432;2023-07-20T06:35:54;15.88;;;5.63;;
41685;SDS011;27370;42.764;23.432;2023-07-20T06:38:20;14.50;;;5.13;;
41685;SDS011;27370;42.764;23.432;2023-07-20T06:40:46;14.32;;;5.00;;
41685;SDS011;27370;42.764;23.432;2023-07-20T06:43:12;12.80;;;4.67;;
41685;SDS011;27370;42.764;23.432;2023-07-20T06:45:37;15.23;;;4.68;;
41685;SDS011;27370;42.764;23.432;2023-07-20T06:48:03;16.15;;;5.32;;
41685;SDS011;27370;42.764;23.432;2023-07-20T06:50:29;17.88;;;4.82;;
41685;SDS011;27370;42.764;23.432;2023-07-20T06:52:56;12.32;;;3.70;;
41685;SDS011;27370;42.764;23.432;2023-07-20T06:55:22;14.02;;;4.10;;
41685;SDS011;27370;42.764;23.432;2023-07-20T06:57:47;10.82;;;3.83;;
41685;SDS011;27370;42.764;23.432;2023-07-20T07:00:13;13.13;;;4.60;;
41685;SDS011;27370;42.764;23.432;2023-07-20T07:02:39;12.25;;;5.03;;
41685;SDS011;27370;42.764;23.432;2023-07-20T07:05:04;16.23;;;4.28;;
41685;SDS011;27370;42.764;23.432;2023-07-20T07:07:31;11.88;;;4.38;;
41685;SDS011;27370;42.764;23.432;2023-07-20T07:09:57;11.88;;;4.22;;
41685;SDS011;27370;42.764;23.432;2023-07-20T07:12:22;14.73;;;4.22;;
41685;SDS011;27370;42.764;23.432;2023-07-20T07:14:48;11.82;;;3.92;;
41685;SDS011;27370;42.764;23.432;2023-07-20T07:17:15;13.07;;;4.22;;
41685;SDS011;27370;42.764;23.432;2023-07-20T07:19:40;14.18;;;4.47;;
41685;SDS011;27370;42.764;23.432;2023-07-20T07:22:07;17.30;;;4.70;;
41685;SDS011;27370;42.764;23.432;2023-07-20T07:24:32;15.52;;;4.38;;
41685;SDS011;27370;42.764;23.432;2023-07-20T07:26:59;14.35;;;4.40;;
41685;SDS011;27370;42.764;23.432;2023-07-20T07:29:25;16.63;;;4.60;;
41685;SDS011;27370;42.764;23.432;2023-07-20T07:31:51;12.90;;;4.65;;
41685;SDS011;27370;42.764;23.432;2023-07-20T07:34:16;11.52;;;4.30;;
41685;SDS011;27370;42.764;23.432;2023-07-20T07:36:42;12.27;;;4.25;;
41685;SDS011;27370;42.764;23.432;2023-07-20T07:39:08;12.38;;;4.05;;
41685;SDS011;27370;42.764;23.432;2023-07-20T07:41:34;13.15;;;4.22;;
41685;SDS011;27370;42.764;23.432;2023-07-20T07:44:00;11.43;;;4.10;;
41685;SDS011;27370;42.764;23.432;2023-07-20T07:46:25;11.90;;;4.13;;
41685;SDS011;27370;42.764;23.432;2023-07-20T07:48:51;13.52;;;4.70;;
41685;SDS011;27370;42.764;23.432;2023-07-20T07:51:16;11.35;;;4.30;;
41685;SDS011;27370;42.764;23.432;2023-07-20T07:53:42;12.95;;;3.97;;
41685;SDS011;27370;42.764;23.432;2023-07-20T07:56:08;11.27;;;4.32;;
41685;SDS011;27370;42.764;23.432;2023-07-20T07:58:34;14.32;;;4.03;;
41685;SDS011;27370;42.764;23.432;2023-07-20T08:01:00;11.02;;;4.35;;
41685;SDS011;27370;42.764;23.432;2023-07-20T08:03:26;11.85;;;4.03;;
41685;SDS011;27370;42.764;23.432;2023-07-20T08:05:53;15.45;;;4.82;;
41685;SDS011;27370;42.764;23.432;2023-07-20T08:08:20;14.32;;;4.32;;
41685;SDS011;27370;42.764;23.432;2023-07-20T08:10:46;12.60;;;3.85;;
41685;SDS011;27370;42.764;23.432;2023-07-20T08:13:13;12.25;;;4.53;;
41685;SDS011;27370;42.764;23.432;2023-07-20T08:15:38;11.70;;;3.85;;
41685;SDS011;27370;42.764;23.432;2023-07-20T08:18:04;12.02;;;3.78;;
41685;SDS011;27370;42.764;23.432;2023-07-20T08:20:31;9.70;;;3.70;;
41685;SDS011;27370;42.764;23.432;2023-07-20T08:22:57;12.07;;;4.28;;
41685;SDS011;27370;42.764;23.432;2023-07-20T08:25:24;10.55;;;4.15;;
41685;SDS011;27370;42.764;23.432;2023-07-20T08:27:50;13.07;;;4.50;;
41685;SDS011;27370;42.764;23.432;2023-07-20T08:30:16;14.90;;;4.57;;
41685;SDS011;27370;42.764;23.432;2023-07-20T08:32:42;14.20;;;4.20;;
41685;SDS011;27370;42.764;23.432;2023-07-20T08:35:08;14.65;;;3.72;;
41685;SDS011;27370;42.764;23.432;2023-07-20T08:37:34;16.30;;;3.95;;
41685;SDS011;27370;42.764;23.432;2023-07-20T08:39:59;11.30;;;3.65;;
41685;SDS011;27370;42.764;23.432;2023-07-20T08:42:25;11.15;;;3.08;;
41685;SDS011;27370;42.764;23.432;2023-07-20T08:44:52;13.07;;;3.50;;
41685;SDS011;27370;42.764;23.432;2023-07-20T08:47:18;15.30;;;3.03;;
41685;SDS011;27370;42.764;23.432;2023-07-20T08:49:47;12.02;;;3.55;;
41685;SDS011;27370;42.764;23.432;2023-07-20T08:52:13;14.35;;;3.90;;
41685;SDS011;27370;42.764;23.432;2023-07-20T08:54:39;12.63;;;3.30;;
41685;SDS011;27370;42.764;23.432;2023-07-20T08:57:05;12.02;;;3.20;;
41685;SDS011;27370;42.764;23.432;2023-07-20T08:59:31;12.13;;;3.42;;
41685;SDS011;27370;42.764;23.432;2023-07-20T09:01:58;10.77;;;2.97;;
41685;SDS011;27370;42.764;23.432;2023-07-20T09:04:25;12.55;;;3.10;;
41685;SDS011;27370;42.764;23.432;2023-07-20T09:06:50;12.38;;;3.28;;
41685;SDS011;27370;42.764;23.432;2023-07-20T09:09:17;13.13;;;3.10;;
41685;SDS011;27370;42.764;23.432;2023-07-20T09:11:42;9.13;;;2.70;;
41685;SDS011;27370;42.764;23.432;2023-07-20T09:14:11;14.15;;;3.53;;
41685;SDS011;27370;42.764;23.432;2023-07-20T09:16:53;13.85;;;3.42;;
41685;SDS011;27370;42.764;23.432;2023-07-20T09:19:20;10.60;;;3.50;;
41685;SDS011;27370;42.764;23.432;2023-07-20T09:21:46;10.85;;;3.05;;
41685;SDS011;27370;42.764;23.432;2023-07-20T09:24:14;9.88;;;3.00;;
41685;SDS011;27370;42.764;23.432;2023-07-20T09:26:41;12.05;;;2.85;;
41685;SDS011;27370;42.764;23.432;2023-07-20T09:29:10;7.57;;;2.78;;
41685;SDS011;27370;42.764;23.432;2023-07-20T09:31:36;14.90;;;3.17;;
41685;SDS011;27370;42.764;23.432;2023-07-20T09:34:02;15.07;;;3.00;;
41685;SDS011;27370;42.764;23.432;2023-07-20T09:36:35;11.27;;;3.60;;
41685;SDS011;27370;42.764;23.432;2023-07-20T09:39:02;11.02;;;3.30;;
41685;SDS011;27370;42.764;23.432;2023-07-20T09:41:29;9.68;;;3.10;;
41685;SDS011;27370;42.764;23.432;2023-07-20T09:43:54;11.00;;;2.92;;
41685;SDS011;27370;42.764;23.432;2023-07-20T09:46:20;10.05;;;2.80;;
41685;SDS011;27370;42.764;23.432;2023-07-20T09:48:52;10.85;;;3.22;;
41685;SDS011;27370;42.764;23.432;2023-07-20T09:51:21;11.00;;;3.17;;
41685;SDS011;27370;42.764;23.432;2023-07-20T09:53:48;9.70;;;3.38;;
41685;SDS011;27370;42.764;23.432;2023-07-20T09:56:15;12.50;;;2.83;;
41685;SDS011;27370;42.764;23.432;2023-07-20T09:58:43;13.18;;;2.97;;
41685;SDS011;27370;42.764;23.432;2023-07-20T10:01:10;8.80;;;3.25;;
41685;SDS011;27370;42.764;23.432;2023-07-20T10:03:39;9.48;;;2.85;;
41685;SDS011;27370;42.764;23.432;2023-07-20T10:06:08;11.23;;;3.08;;
41685;SDS011;27370;42.764;23.432;2023-07-20T10:08:41;12.38;;;3.10;;
41685;SDS011;27370;42.764;23.432;2023-07-20T10:11:07;11.57;;;2.78;;
41685;SDS011;27370;42.764;23.432;2023-07-20T10:13:37;9.98;;;2.70;;
41685;SDS011;27370;42.764;23.432;2023-07-20T10:16:05;9.90;;;3.08;;
41685;SDS011;27370;42.764;23.432;2023-07-20T10:21:23;9.25;;;2.90;;
41685;SDS011;27370;42.764;23.432;2023-07-20T10:23:49;6.10;;;2.35;;
41685;SDS011;27370;42.764;23.432;2023-07-20T10:26:15;8.25;;;2.60;;
41685;SDS011;27370;42.764;23.432;2023-07-20T10:28:41;11.90;;;3.03;;
41685;SDS011;27370;42.764;23.432;2023-07-20T10:31:10;11.10;;;3.08;;
41685;SDS011;27370;42.764;23.432;2023-07-20T10:33:38;10.25;;;3.00;;
41685;SDS011;27370;42.764;23.432;2023-07-20T10:36:05;9.55;;;2.85;;
41685;SDS011;27370;42.764;23.432;2023-07-20T10:41:27;9.23;;;2.70;;
41685;SDS011;27370;42.764;23.432;2023-07-20T10:44:00;13.23;;;3.42;;
41685;SDS011;27370;42.764;23.432;2023-07-20T10:47:01;11.43;;;3.53;;
41685;SDS011;27370;42.764;23.432;2023-07-20T10:49:26;12.02;;;3.30;;
41685;SDS011;27370;42.764;23.432;2023-07-20T10:51:56;10.50;;;2.95;;
41685;SDS011;27370;42.764;23.432;2023-07-20T10:56:49;13.60;;;3.20;;
41685;SDS011;27370;42.764;23.432;2023-07-20T11:01:50;11.68;;;3.30;;
41685;SDS011;27370;42.764;23.432;2023-07-20T11:04:21;13.52;;;3.17;;
41685;SDS011;27370;42.764;23.432;2023-07-20T11:07:06;10.52;;;3.22;;
41685;SDS011;27370;42.764;23.432;2023-07-20T11:09:35;10.68;;;3.20;;
41685;SDS011;27370;42.764;23.432;2023-07-20T11:12:14;12.82;;;3.25;;
41685;SDS011;27370;42.764;23.432;2023-07-20T11:14:53;13.63;;;2.92;;
41685;SDS011;27370;42.764;23.432;2023-07-20T11:19:57;13.93;;;3.35;;
41685;SDS011;27370;42.764;23.432;2023-07-20T11:22:28;13.02;;;3.08;;
41685;SDS011;27370;42.764;23.432;2023-07-20T11:24:56;9.82;;;2.75;;
41685;SDS011;27370;42.764;23.432;2023-07-20T11:27:22;12.05;;;3.30;;
41685;SDS011;27370;42.764;23.432;2023-07-20T11:29:48;10.70;;;3.13;;
41685;SDS011;27370;42.764;23.432;2023-07-20T11:32:20;11.45;;;3.15;;
41685;SDS011;27370;42.764;23.432;2023-07-20T11:34:47;11.25;;;3.00;;
41685;SDS011;27370;42.764;23.432;2023-07-20T11:37:13;10.68;;;2.90;;
41685;SDS011;27370;42.764;23.432;2023-07-20T11:39:38;12.55;;;2.88;;
41685;SDS011;27370;42.764;23.432;2023-07-20T11:42:05;8.27;;;3.13;;
41685;SDS011;27370;42.764;23.432;2023-07-20T11:44:32;9.20;;;3.20;;
41685;SDS011;27370;42.764;23.432;2023-07-20T11:47:10;9.93;;;3.10;;
41685;SDS011;27370;42.764;23.432;2023-07-20T11:49:43;9.07;;;3.13;;
41685;SDS011;27370;42.764;23.432;2023-07-20T11:52:11;11.30;;;3.40;;
41685;SDS011;27370;42.764;23.432;2023-07-20T11:54:40;10.80;;;3.30;;
41685;SDS011;27370;42.764;23.432;2023-07-20T11:57:07;10.93;;;3.70;;
41685;SDS011;27370;42.764;23.432;2023-07-20T11:59:52;13.02;;;3.45;;
41685;SDS011;27370;42.764;23.432;2023-07-20T12:02:20;12.40;;;3.47;;
41685;SDS011;27370;42.764;23.432;2023-07-20T12:04:47;12.90;;;3.70;;
41685;SDS011;27370;42.764;23.432;2023-07-20T12:07:13;12.43;;;3.80;;
41685;SDS011;27370;42.764;23.432;2023-07-20T12:09:38;11.45;;;3.30;;
41685;SDS011;27370;42.764;23.432;2023-07-20T12:12:09;11.88;;;3.28;;
41685;SDS011;27370;42.764;23.432;2023-07-20T12:14:37;15.05;;;4.05;;
41685;SDS011;27370;42.764;23.432;2023-07-20T12:17:02;12.27;;;3.28;;
41685;SDS011;27370;42.764;23.432;2023-07-20T12:19:28;9.57;;;2.92;;
41685;SDS011;27370;42.764;23.432;2023-07-20T12:21:57;11.90;;;3.50;;
41685;SDS011;27370;42.764;23.432;2023-07-20T12:24:24;11.82;;;3.50;;
41685;SDS011;27370;42.764;23.432;2023-07-20T12:26:55;8.60;;;2.95;;
41685;SDS011;27370;42.764;23.432;2023-07-20T12:29:23;17.90;;;3.58;;
41685;SDS011;27370;42.764;23.432;2023-07-20T12:31:48;8.45;;;3.00;;
41685;SDS011;27370;42.764;23.432;2023-07-20T12:34:14;10.20;;;3.17;;
41685;SDS011;27370;42.764;23.432;2023-07-20T12:36:40;11.90;;;3.35;;
41685;SDS011;27370;42.764;23.432;2023-07-20T12:39:05;11.80;;;2.78;;
41685;SDS011;27370;42.764;23.432;2023-07-20T12:41:31;8.80;;;2.88;;
41685;SDS011;27370;42.764;23.432;2023-07-20T12:43:56;12.23;;;3.17;;
41685;SDS011;27370;42.764;23.432;2023-07-20T12:46:23;13.80;;;3.50;;
41685;SDS011;27370;42.764;23.432;2023-07-20T12:48:49;10.35;;;3.30;;
41685;SDS011;27370;42.764;23.432;2023-07-20T12:51:14;9.18;;;3.00;;
41685;SDS011;27370;42.764;23.432;2023-07-20T12:53:40;11.88;;;3.30;;
41685;SDS011;27370;42.764;23.432;2023-07-20T12:56:06;9.75;;;3.00;;
41685;SDS011;27370;42.764;23.432;2023-07-20T12:58:31;9.27;;;3.00;;
41685;SDS011;27370;42.764;23.432;2023-07-20T13:00:57;11.23;;;2.95;;
41685;SDS011;27370;42.764;23.432;2023-07-20T13:03:22;12.55;;;3.67;;
41685;SDS011;27370;42.764;23.432;2023-07-20T13:05:48;9.23;;;2.97;;
41685;SDS011;27370;42.764;23.432;2023-07-20T13:08:14;13.10;;;2.97;;
41685;SDS011;27370;42.764;23.432;2023-07-20T13:10:40;10.93;;;2.95;;
41685;SDS011;27370;42.764;23.432;2023-07-20T13:13:06;11.73;;;3.38;;
41685;SDS011;27370;42.764;23.432;2023-07-20T13:15:40;13.32;;;3.00;;
41685;SDS011;27370;42.764;23.432;2023-07-20T13:18:07;7.35;;;2.80;;
41685;SDS011;27370;42.764;23.432;2023-07-20T13:20:32;11.05;;;3.03;;
41685;SDS011;27370;42.764;23.432;2023-07-20T13:22:58;11.63;;;3.42;;
41685;SDS011;27370;42.764;23.432;2023-07-20T13:25:24;8.20;;;2.95;;
41685;SDS011;27370;42.764;23.432;2023-07-20T13:27:49;13.50;;;2.90;;
41685;SDS011;27370;42.764;23.432;2023-07-20T13:30:15;12.10;;;3.10;;
41685;SDS011;27370;42.764;23.432;2023-07-20T13:35:10;9.90;;;2.63;;
41685;SDS011;27370;42.764;23.432;2023-07-20T13:37:36;11.82;;;2.72;;
41685;SDS011;27370;42.764;23.432;2023-07-20T13:40:02;11.50;;;2.65;;
41685;SDS011;27370;42.764;23.432;2023-07-20T13:42:30;13.60;;;3.13;;
41685;SDS011;27370;42.764;23.432;2023-07-20T13:44:55;10.43;;;2.42;;
41685;SDS011;27370;42.764;23.432;2023-07-20T13:47:21;9.48;;;2.67;;
41685;SDS011;27370;42.764;23.432;2023-07-20T13:49:46;10.18;;;2.50;;
41685;SDS011;27370;42.764;23.432;2023-07-20T13:52:12;11.90;;;2.88;;
41685;SDS011;27370;42.764;23.432;2023-07-20T13:54:37;11.30;;;2.55;;
41685;SDS011;27370;42.764;23.432;2023-07-20T13:57:03;10.05;;;3.13;;
41685;SDS011;27370;42.764;23.432;2023-07-20T13:59:29;9.88;;;2.63;;
41685;SDS011;27370;42.764;23.432;2023-07-20T14:01:54;9.40;;;2.75;;
41685;SDS011;27370;42.764;23.432;2023-07-20T14:04:20;13.43;;;3.10;;
41685;SDS011;27370;42.764;23.432;2023-07-20T14:06:45;12.32;;;2.58;;
41685;SDS011;27370;42.764;23.432;2023-07-20T14:09:11;9.98;;;3.08;;
41685;SDS011;27370;42.764;23.432;2023-07-20T14:11:36;11.07;;;2.83;;
41685;SDS011;27370;42.764;23.432;2023-07-20T14:14:02;7.50;;;2.58;;
41685;SDS011;27370;42.764;23.432;2023-07-20T14:16:27;10.70;;;2.88;;
41685;SDS011;27370;42.764;23.432;2023-07-20T14:18:53;9.75;;;2.53;;
41685;SDS011;27370;42.764;23.432;2023-07-20T14:21:19;11.20;;;2.83;;
41685;SDS011;27370;42.764;23.432;2023-07-20T14:23:46;7.97;;;2.55;;
41685;SDS011;27370;42.764;23.432;2023-07-20T14:26:14;11.73;;;3.20;;
41685;SDS011;27370;42.764;23.432;2023-07-20T14:28:39;10.27;;;2.78;;
41685;SDS011;27370;42.764;23.432;2023-07-20T14:31:05;10.07;;;3.05;;
41685;SDS011;27370;42.764;23.432;2023-07-20T14:33:31;10.55;;;2.70;;
41685;SDS011;27370;42.764;23.432;2023-07-20T14:35:57;6.50;;;2.58;;
41685;SDS011;27370;42.764;23.432;2023-07-20T14:38:22;9.73;;;2.90;;
41685;SDS011;27370;42.764;23.432;2023-07-20T14:40:48;9.07;;;2.75;;
41685;SDS011;27370;42.764;23.432;2023-07-20T14:43:14;9.43;;;2.75;;
41685;SDS011;27370;42.764;23.432;2023-07-20T14:45:42;9.27;;;3.17;;
41685;SDS011;27370;42.764;23.432;2023-07-20T14:48:08;11.40;;;2.80;;